National Weather Service Raw Text Product

Displaying AFOS PIL: TAFOTM Received: 2018-01-03 11:39 UTC


178 
FTUS43 KDMX 031139
TAFOTM
TAF
KOTM 031139Z 0312/0412 32016G26KT P6SM OVC035
     FM040000 31010KT P6SM FEW250
     FM040800 32006KT P6SM FEW250=